sensor_id;sensor_type;location;lat;lon;timestamp;pressure;altitude;pressure_sealevel;temperature;humidity
46174;BME280;31897;52.420;13.498;2023-05-22T00:00:26;101400;;;18.65581;23.387
46174;BME280;31897;52.420;13.498;2023-05-22T00:03:27;101400;;;18.65032;23.40527
46174;BME280;31897;52.420;13.498;2023-05-22T00:06:28;101400;;;18.65775;23.40496
46174;BME280;31897;52.420;13.498;2023-05-22T00:09:28;101400;;;18.63513;23.29769
46174;BME280;31897;52.420;13.498;2023-05-22T00:12:29;101400;;;18.61058;23.31677
46174;BME280;31897;52.420;13.498;2023-05-22T00:15:30;101400;;;18.60767;23.2207
46174;BME280;31897;52.420;13.498;2023-05-22T00:18:31;101400;;;18.5408;23.24159
46174;BME280;31897;52.420;13.498;2023-05-22T00:21:32;101400;;;18.46972;23.25064
46174;BME280;31897;52.420;13.498;2023-05-22T00:24:33;101400;;;18.45325;23.20927
46174;BME280;31897;52.420;13.498;2023-05-22T00:27:34;101400;;;18.41222;23.193
46174;BME280;31897;52.420;13.498;2023-05-22T00:30:35;101400;;;18.3938;23.10364
46174;BME280;31897;52.420;13.498;2023-05-22T00:33:36;101400;;;18.41609;23.06662
46174;BME280;31897;52.420;13.498;2023-05-22T00:36:36;101400;;;18.37636;23.15847
46174;BME280;31897;52.420;13.498;2023-05-22T00:39:37;101400;;;18.31723;23.14899
46174;BME280;31897;52.420;13.498;2023-05-22T00:42:38;101400;;;18.24002;23.22439
46174;BME280;31897;52.420;13.498;2023-05-22T00:45:39;101400;;;18.14988;23.42644
46174;BME280;31897;52.420;13.498;2023-05-22T00:48:39;101400;;;18.12145;23.43365
46174;BME280;31897;52.420;13.498;2023-05-22T00:51:41;101400;;;18.07429;23.42363
46174;BME280;31897;52.420;13.498;2023-05-22T00:54:42;101400;;;18.06072;23.4302
46174;BME280;31897;52.420;13.498;2023-05-22T00:57:43;101400;;;18.0675;23.4119
46174;BME280;31897;52.420;13.498;2023-05-22T01:00:44;101400;;;18.04327;23.3769
46174;BME280;31897;52.420;13.498;2023-05-22T01:03:45;101400;;;17.9932;23.49909
46174;BME280;31897;52.420;13.498;2023-05-22T01:06:46;101400;;;17.94215;23.53725
46174;BME280;31897;52.420;13.498;2023-05-22T01:09:47;101400;;;17.93375;23.48958
46174;BME280;31897;52.420;13.498;2023-05-22T01:12:51;101400;;;17.87398;23.55811
46174;BME280;31897;52.420;13.498;2023-05-22T01:15:56;101400;;;17.79063;23.5796
46174;BME280;31897;52.420;13.498;2023-05-22T01:19:04;101400;;;17.74379;23.66556
46174;BME280;31897;52.420;13.498;2023-05-22T01:22:11;101400;;;17.7089;23.64301
46174;BME280;31897;52.420;13.498;2023-05-22T01:25:26;101400;;;17.66302;23.64492
46174;BME280;31897;52.420;13.498;2023-05-22T01:28:37;101400;;;17.60939;23.71313
46174;BME280;31897;52.420;13.498;2023-05-22T01:31:39;101400;;;17.53541;23.77017
46174;BME280;31897;52.420;13.498;2023-05-22T01:34:41;101400;;;17.45852;23.86328
46174;BME280;31897;52.420;13.498;2023-05-22T01:37:43;101400;;;17.46757;23.83293
46174;BME280;31897;52.420;13.498;2023-05-22T01:40:45;101400;;;17.38486;23.99819
46174;BME280;31897;52.420;13.498;2023-05-22T01:43:46;101400;;;17.37323;24.04662
46174;BME280;31897;52.420;13.498;2023-05-22T01:46:47;101400;;;17.35417;24.13731
46174;BME280;31897;52.420;13.498;2023-05-22T01:49:47;101400;;;17.33091;24.20418
46174;BME280;31897;52.420;13.498;2023-05-22T01:52:50;101400;;;17.2579;24.26704
46174;BME280;31897;52.420;13.498;2023-05-22T01:55:55;101400;;;17.22398;24.28039
46174;BME280;31897;52.420;13.498;2023-05-22T01:58:59;101400;;;17.16453;24.30074
46174;BME280;31897;52.420;13.498;2023-05-22T02:02:02;101400;;;17.12803;24.32616
46174;BME280;31897;52.420;13.498;2023-05-22T02:05:04;101400;;;17.08118;24.23817
46174;BME280;31897;52.420;13.498;2023-05-22T02:08:06;101400;;;17.05501;24.2512
46174;BME280;31897;52.420;13.498;2023-05-22T02:11:07;101400;;;17.04758;24.27546
46174;BME280;31897;52.420;13.498;2023-05-22T02:14:09;101400;;;17.08118;24.2202
46174;BME280;31897;52.420;13.498;2023-05-22T02:17:10;101400;;;17.1025;24.22533
46174;BME280;31897;52.420;13.498;2023-05-22T02:20:12;101400;;;17.07957;24.33408
46174;BME280;31897;52.420;13.498;2023-05-22T02:23:13;101400;;;17.02755;24.38406
46174;BME280;31897;52.420;13.498;2023-05-22T02:26:14;101400;;;16.93613;24.4356
46174;BME280;31897;52.420;13.498;2023-05-22T02:29:14;101400;;;16.97554;24.4041
46174;BME280;31897;52.420;13.498;2023-05-22T02:32:15;101400;;;16.90931;24.49055
46174;BME280;31897;52.420;13.498;2023-05-22T02:35:16;101400;;;16.84664;24.60079
46174;BME280;31897;52.420;13.498;2023-05-22T02:38:17;101400;;;16.79366;24.56096
46174;BME280;31897;52.420;13.498;2023-05-22T02:41:17;101400;;;16.77298;24.54381
46174;BME280;31897;52.420;13.498;2023-05-22T02:44:18;101400;;;16.75683;24.61029
46174;BME280;31897;52.420;13.498;2023-05-22T02:47:19;101400;;;16.69124;24.57694
46174;BME280;31897;52.420;13.498;2023-05-22T02:50:20;101400;;;16.63826;24.59099
46174;BME280;31897;52.420;13.498;2023-05-22T02:53:20;101400;;;16.58043;24.6471
46174;BME280;31897;52.420;13.498;2023-05-22T02:56:21;101400;;;16.52584;24.67315
46174;BME280;31897;52.420;13.498;2023-05-22T02:59:22;101400;;;16.49773;24.64433
46174;BME280;31897;52.420;13.498;2023-05-22T03:02:24;101400;;;16.48061;24.61509
46174;BME280;31897;52.420;13.498;2023-05-22T03:05:25;101400;;;16.42763;24.64108
46174;BME280;31897;52.420;13.498;2023-05-22T03:08:26;101400;;;16.37594;24.74476
46174;BME280;31897;52.420;13.498;2023-05-22T03:11:27;101400;;;16.35817;24.71555
46174;BME280;31897;52.420;13.498;2023-05-22T03:14:28;101400;;;16.30002;24.77759
46174;BME280;31897;52.420;13.498;2023-05-22T03:17:28;101300;;;16.31552;24.79493
46174;BME280;31897;52.420;13.498;2023-05-22T03:20:29;101300;;;16.34589;24.8416
46174;BME280;31897;52.420;13.498;2023-05-22T03:23:30;101300;;;16.35171;24.8354
46174;BME280;31897;52.420;13.498;2023-05-22T03:26:31;101300;;;16.32715;24.89015
46174;BME280;31897;52.420;13.498;2023-05-22T03:29:32;101300;;;16.26803;24.9821
46174;BME280;31897;52.420;13.498;2023-05-22T03:32:33;101300;;;16.1653;25.10555
46174;BME280;31897;52.420;13.498;2023-05-22T03:35:33;101300;;;16.13235;25.14863
46174;BME280;31897;52.420;13.498;2023-05-22T03:38:34;101300;;;16.16756;25.12339
46174;BME280;31897;52.420;13.498;2023-05-22T03:41:35;101300;;;16.17693;25.09913
46174;BME280;31897;52.420;13.498;2023-05-22T03:44:36;101300;;;16.21279;25.15755
46174;BME280;31897;52.420;13.498;2023-05-22T03:47:36;101300;;;16.19664;25.22391
46174;BME280;31897;52.420;13.498;2023-05-22T03:50:37;101300;;;16.17305;25.32042
46174;BME280;31897;52.420;13.498;2023-05-22T03:53:38;101300;;;16.17111;25.39819
46174;BME280;31897;52.420;13.498;2023-05-22T03:56:39;101300;;;16.17305;25.46983
46174;BME280;31897;52.420;13.498;2023-05-22T03:59:40;101300;;;16.12847;25.54916
46174;BME280;31897;52.420;13.498;2023-05-22T04:02:40;101300;;;16.08938;25.61035
46174;BME280;31897;52.420;13.498;2023-05-22T04:05:41;101300;;;16.11006;25.81274
46174;BME280;31897;52.420;13.498;2023-05-22T04:08:42;101300;;;16.04318;25.94659
46174;BME280;31897;52.420;13.498;2023-05-22T04:11:42;101300;;;16.00248;26.0257
46174;BME280;31897;52.420;13.498;2023-05-22T04:14:43;101300;;;15.99279;26.1455
46174;BME280;31897;52.420;13.498;2023-05-22T04:17:44;101300;;;15.91299;26.26179
46174;BME280;31897;52.420;13.498;2023-05-22T04:20:45;101300;;;15.85742;26.31151
46174;BME280;31897;52.420;13.498;2023-05-22T04:23:45;101300;;;15.90265;26.28604
46174;BME280;31897;52.420;13.498;2023-05-22T04:26:46;101300;;;16.01055;26.21057
46174;BME280;31897;52.420;13.498;2023-05-22T04:29:47;101300;;;16.0448;26.18547
46174;BME280;31897;52.420;13.498;2023-05-22T04:32:48;101300;;;16.06515;26.26241
46174;BME280;31897;52.420;13.498;2023-05-22T04:35:49;101300;;;16.08647;26.30347
46174;BME280;31897;52.420;13.498;2023-05-22T04:38:49;101300;;;16.11232;26.4101
46174;BME280;31897;52.420;13.498;2023-05-22T04:41:50;101300;;;16.18339;26.39567
46174;BME280;31897;52.420;13.498;2023-05-22T04:44:51;101300;;;16.19179;26.3655
46174;BME280;31897;52.420;13.498;2023-05-22T04:47:52;101300;;;16.2073;26.36496
46174;BME280;31897;52.420;13.498;2023-05-22T04:50:53;101300;;;16.19954;26.3473
46174;BME280;31897;52.420;13.498;2023-05-22T04:53:53;101300;;;16.27029;26.38068
46174;BME280;31897;52.420;13.498;2023-05-22T04:56:54;101300;;;16.42246;26.28568
46174;BME280;31897;52.420;13.498;2023-05-22T04:59:55;101300;;;16.45024;26.19502
46174;BME280;31897;52.420;13.498;2023-05-22T05:02:56;101300;;;16.49288;26.32505
46174;BME280;31897;52.420;13.498;2023-05-22T05:05:57;101300;;;16.53844;26.3952
46174;BME280;31897;52.420;13.498;2023-05-22T05:08:57;101300;;;16.56267;26.39435
46174;BME280;31897;52.420;13.498;2023-05-22T05:11:58;101300;;;16.57074;26.50768
46174;BME280;31897;52.420;13.498;2023-05-22T05:14:59;101300;;;16.49095;26.64199
46174;BME280;31897;52.420;13.498;2023-05-22T05:18:00;101300;;;16.46962;26.61283
46174;BME280;31897;52.420;13.498;2023-05-22T05:21:00;101300;;;16.49999;26.55798
46174;BME280;31897;52.420;13.498;2023-05-22T05:24:01;101300;;;16.60725;26.54229
46174;BME280;31897;52.420;13.498;2023-05-22T05:27:02;101300;;;16.91965;26.32794
46174;BME280;31897;52.420;13.498;2023-05-22T05:30:03;101300;;;17.72311;25.41798
46174;BME280;31897;52.420;13.498;2023-05-22T05:33:04;101300;;;17.70664;25.47857
46174;BME280;31897;52.420;13.498;2023-05-22T05:36:05;101300;;;17.56836;25.6516
46174;BME280;31897;52.420;13.498;2023-05-22T05:39:06;101300;;;17.48663;25.66661
46174;BME280;31897;52.420;13.498;2023-05-22T05:42:07;101300;;;17.3742;25.87448
46174;BME280;31897;52.420;13.498;2023-05-22T05:45:08;101300;;;17.36774;25.92265
46174;BME280;31897;52.420;13.498;2023-05-22T05:48:09;101300;;;17.32187;25.98423
46174;BME280;31897;52.420;13.498;2023-05-22T05:51:10;101300;;;17.30927;25.94874
46174;BME280;31897;52.420;13.498;2023-05-22T05:54:10;101300;;;17.39003;25.90986
46174;BME280;31897;52.420;13.498;2023-05-22T05:57:12;101300;;;17.37614;25.85644
46174;BME280;31897;52.420;13.498;2023-05-22T06:00:13;101300;;;17.47532;25.80487
46174;BME280;31897;52.420;13.498;2023-05-22T06:03:14;101300;;;17.48792;25.8104
46174;BME280;31897;52.420;13.498;2023-05-22T06:06:15;101300;;;17.60972;25.76996
46174;BME280;31897;52.420;13.498;2023-05-22T06:09:15;101300;;;17.56255;25.84962
46174;BME280;31897;52.420;13.498;2023-05-22T06:12:16;101300;;;17.6249;25.78139
46174;BME280;31897;52.420;13.498;2023-05-22T06:15:17;101300;;;17.75348;25.68671
46174;BME280;31897;52.420;13.498;2023-05-22T06:18:18;101300;;;17.83102;25.62985
46174;BME280;31897;52.420;13.498;2023-05-22T06:21:18;101300;;;17.80323;25.6009
46174;BME280;31897;52.420;13.498;2023-05-22T06:24:19;101300;;;17.82326;25.62414
46174;BME280;31897;52.420;13.498;2023-05-22T06:27:20;101300;;;17.89111;25.57963
46174;BME280;31897;52.420;13.498;2023-05-22T06:30:21;101300;;;17.91695;25.57266
46174;BME280;31897;52.420;13.498;2023-05-22T06:33:21;101300;;;17.9176;25.53064
46174;BME280;31897;52.420;13.498;2023-05-22T06:36:22;101300;;;17.88206;25.64595
46174;BME280;31897;52.420;13.498;2023-05-22T06:39:23;101300;;;17.89111;25.66361
46174;BME280;31897;52.420;13.498;2023-05-22T06:42:24;101300;;;18.02486;25.59863
46174;BME280;31897;52.420;13.498;2023-05-22T06:45:25;101300;;;18.06363;25.62119
46174;BME280;31897;52.420;13.498;2023-05-22T06:48:25;101300;;;18.19188;25.53837
46174;BME280;31897;52.420;13.498;2023-05-22T06:51:26;101300;;;18.54823;25.13445
46174;BME280;31897;52.420;13.498;2023-05-22T06:54:27;101300;;;18.50558;25.29229
46174;BME280;31897;52.420;13.498;2023-05-22T06:57:28;101300;;;18.44517;25.3907
46174;BME280;31897;52.420;13.498;2023-05-22T07:00:28;101300;;;18.53886;25.28501
46174;BME280;31897;52.420;13.498;2023-05-22T07:03:29;101300;;;18.73755;25.16922
46174;BME280;31897;52.420;13.498;2023-05-22T07:06:30;101300;;;19.15915;24.96643
46174;BME280;31897;52.420;13.498;2023-05-22T07:09:31;101300;;;19.91838;24.23139
46174;BME280;31897;52.420;13.498;2023-05-22T07:12:32;101300;;;19.89253;24.31684
46174;BME280;31897;52.420;13.498;2023-05-22T07:15:33;101300;;;19.72582;24.55259
46174;BME280;31897;52.420;13.498;2023-05-22T07:18:34;101300;;;19.69416;24.57194
46174;BME280;31897;52.420;13.498;2023-05-22T07:21:35;101300;;;19.67769;24.59068
46174;BME280;31897;52.420;13.498;2023-05-22T07:24:35;101300;;;19.69029;24.58415
46174;BME280;31897;52.420;13.498;2023-05-22T07:27:36;101300;;;19.75005;24.52149
46174;BME280;31897;52.420;13.498;2023-05-22T07:30:37;101300;;;19.73293;24.52218
46174;BME280;31897;52.420;13.498;2023-05-22T07:33:38;101300;;;19.82824;24.44602
46174;BME280;31897;52.420;13.498;2023-05-22T07:36:39;101300;;;20.00334;24.37864
46174;BME280;31897;52.420;13.498;2023-05-22T07:39:40;101300;;;20.1316;24.28899
46174;BME280;31897;52.420;13.498;2023-05-22T07:42:40;101300;;;20.13677;24.21037
46174;BME280;31897;52.420;13.498;2023-05-22T07:45:41;101300;;;20.19945;24.22589
46174;BME280;31897;52.420;13.498;2023-05-22T07:48:42;101300;;;20.3303;24.22051
46174;BME280;31897;52.420;13.498;2023-05-22T07:51:43;101300;;;20.49636;24.03259
46174;BME280;31897;52.420;13.498;2023-05-22T07:54:44;101300;;;20.61751;23.99132
46174;BME280;31897;52.420;13.498;2023-05-22T07:57:44;101300;;;20.78519;23.89371
46174;BME280;31897;52.420;13.498;2023-05-22T08:00:45;101300;;;20.93186;23.77274
46174;BME280;31897;52.420;13.498;2023-05-22T08:03:46;101300;;;21.1522;23.4853
46174;BME280;31897;52.420;13.498;2023-05-22T08:06:47;101300;;;21.40905;23.15966
46174;BME280;31897;52.420;13.498;2023-05-22T08:09:47;101300;;;21.43425;23.092
46174;BME280;31897;52.420;13.498;2023-05-22T08:12:48;101300;;;21.53247;23.06952
46174;BME280;31897;52.420;13.498;2023-05-22T08:15:49;101300;;;21.64425;22.96169
46174;BME280;31897;52.420;13.498;2023-05-22T08:18:50;101300;;;21.7541;22.88416
46174;BME280;31897;52.420;13.498;2023-05-22T08:21:51;101300;;;21.84392;22.75903
46174;BME280;31897;52.420;13.498;2023-05-22T08:24:51;101300;;;21.99738;22.53403
46174;BME280;31897;52.420;13.498;2023-05-22T08:27:52;101300;;;22.28686;22.21772
46174;BME280;31897;52.420;13.498;2023-05-22T08:30:53;101300;;;22.99183;21.50486
46174;BME280;31897;52.420;13.498;2023-05-22T08:33:54;101300;;;23.02931;21.5395
46174;BME280;31897;52.420;13.498;2023-05-22T08:36:54;101300;;;23.04999;21.45347
46174;BME280;31897;52.420;13.498;2023-05-22T08:39:55;101300;;;23.00895;21.12135
46174;BME280;31897;52.420;13.498;2023-05-22T08:42:56;101300;;;23.07809;21.11797
46174;BME280;31897;52.420;13.498;2023-05-22T08:45:58;101300;;;23.14691;20.95054
46174;BME280;31897;52.420;13.498;2023-05-22T08:48:59;101300;;;23.29198;20.74886
46174;BME280;31897;52.420;13.498;2023-05-22T08:52:02;101300;;;23.29133;20.63947
46174;BME280;31897;52.420;13.498;2023-05-22T08:55:05;101300;;;23.18568;20.59005
46174;BME280;31897;52.420;13.498;2023-05-22T08:58:06;101300;;;23.26258;20.62875
46174;BME280;31897;52.420;13.498;2023-05-22T09:01:08;101300;;;23.31492;20.51062
46174;BME280;31897;52.420;13.498;2023-05-22T09:04:09;101300;;;23.34076;20.46675
46174;BME280;31897;52.420;13.498;2023-05-22T09:07:10;101300;;;23.38793;20.59207
46174;BME280;31897;52.420;13.498;2023-05-22T09:10:10;101200;;;23.56822;20.3397
46174;BME280;31897;52.420;13.498;2023-05-22T09:13:21;101200;;;23.79922;20.07232
46174;BME280;31897;52.420;13.498;2023-05-22T09:16:23;101200;;;23.89324;19.98225
46174;BME280;31897;52.420;13.498;2023-05-22T09:19:24;101200;;;23.9136;19.88987
46174;BME280;31897;52.420;13.498;2023-05-22T09:22:28;101200;;;24.01472;19.82982
46174;BME280;31897;52.420;13.498;2023-05-22T09:25:34;101200;;;24.09614;19.60628
46174;BME280;31897;52.420;13.498;2023-05-22T09:28:35;101200;;;24.16238;19.67592
46174;BME280;31897;52.420;13.498;2023-05-22T09:31:39;101200;;;24.21245;19.37471
46174;BME280;31897;52.420;13.498;2023-05-22T09:34:40;101200;;;24.57399;18.88588
46174;BME280;31897;52.420;13.498;2023-05-22T09:37:41;101200;;;24.53651;18.88181
46174;BME280;31897;52.420;13.498;2023-05-22T09:40:42;101200;;;24.39629;18.79795
46174;BME280;31897;52.420;13.498;2023-05-22T09:43:43;101200;;;24.28386;18.85893
46174;BME280;31897;52.420;13.498;2023-05-22T09:46:49;101200;;;24.24832;18.84257
46174;BME280;31897;52.420;13.498;2023-05-22T09:49:49;101200;;;24.23733;18.88583
46174;BME280;31897;52.420;13.498;2023-05-22T09:52:50;101200;;;24.1669;18.97495
46174;BME280;31897;52.420;13.498;2023-05-22T09:55:51;101200;;;24.13297;18.87929
46174;BME280;31897;52.420;13.498;2023-05-22T09:58:52;101200;;;24.16173;18.74975
46174;BME280;31897;52.420;13.498;2023-05-22T10:01:53;101200;;;24.27578;18.76793
46174;BME280;31897;52.420;13.498;2023-05-22T10:04:54;101200;;;24.34815;18.56889
46174;BME280;31897;52.420;13.498;2023-05-22T10:07:56;101200;;;24.42569;18.42438
46174;BME280;31897;52.420;13.498;2023-05-22T10:10:57;101200;;;24.51099;18.37087
46174;BME280;31897;52.420;13.498;2023-05-22T10:13:57;101200;;;24.56656;18.19699
46174;BME280;31897;52.420;13.498;2023-05-22T10:16:59;101200;;;24.69774;18.15306
46174;BME280;31897;52.420;13.498;2023-05-22T10:19:59;101200;;;24.83731;17.99264
46174;BME280;31897;52.420;13.498;2023-05-22T10:23:01;101200;;;24.8735;17.92956
46174;BME280;31897;52.420;13.498;2023-05-22T10:26:02;101200;;;24.76365;17.94796
46174;BME280;31897;52.420;13.498;2023-05-22T10:29:06;101200;;;24.58918;17.95778
46174;BME280;31897;52.420;13.498;2023-05-22T10:32:11;101200;;;24.63635;17.94903
46174;BME280;31897;52.420;13.498;2023-05-22T10:35:16;101200;;;25.03343;17.70677
46174;BME280;31897;52.420;13.498;2023-05-22T10:38:23;101200;;;25.29933;17.61216
46174;BME280;31897;52.420;13.498;2023-05-22T10:41:26;101200;;;25.68834;17.30849
46174;BME280;31897;52.420;13.498;2023-05-22T10:44:27;101200;;;25.89512;17.04557
46174;BME280;31897;52.420;13.498;2023-05-22T10:47:27;101200;;;25.86766;17.0227
46174;BME280;31897;52.420;13.498;2023-05-22T10:50:28;101200;;;25.85085;17.03592
46174;BME280;31897;52.420;13.498;2023-05-22T10:53:30;101200;;;25.80174;17.21013
46174;BME280;31897;52.420;13.498;2023-05-22T10:56:32;101200;;;25.82856;17.28812
46174;BME280;31897;52.420;13.498;2023-05-22T10:59:33;101200;;;25.76491;17.13886
46174;BME280;31897;52.420;13.498;2023-05-22T11:02:37;101200;;;25.64763;17.15182
46174;BME280;31897;52.420;13.498;2023-05-22T11:05:38;101200;;;25.78462;17.03981
46174;BME280;31897;52.420;13.498;2023-05-22T11:08:39;101200;;;25.94455;16.908
46174;BME280;31897;52.420;13.498;2023-05-22T11:11:39;101200;;;25.91838;16.84222
46174;BME280;31897;52.420;13.498;2023-05-22T11:14:40;101200;;;25.91612;16.74441
46174;BME280;31897;52.420;13.498;2023-05-22T11:17:42;101200;;;25.9187;16.68305
46174;BME280;31897;52.420;13.498;2023-05-22T11:20:46;101200;;;25.96135;16.69888
46174;BME280;31897;52.420;13.498;2023-05-22T11:23:47;101100;;;25.79851;16.66571
46174;BME280;31897;52.420;13.498;2023-05-22T11:26:59;101200;;;25.76911;16.70417
46174;BME280;31897;52.420;13.498;2023-05-22T11:30:00;101100;;;25.68931;16.54984
46174;BME280;31897;52.420;13.498;2023-05-22T11:33:03;101100;;;25.61629;16.40125
46174;BME280;31897;52.420;13.498;2023-05-22T11:36:04;101100;;;25.5885;16.36621
46174;BME280;31897;52.420;13.498;2023-05-22T11:39:05;101100;;;25.50062;16.36537
46174;BME280;31897;52.420;13.498;2023-05-22T11:42:06;101100;;;25.53842;16.24688
46174;BME280;31897;52.420;13.498;2023-05-22T11:45:07;101100;;;25.43439;16.13084
46174;BME280;31897;52.420;13.498;2023-05-22T11:48:09;101100;;;25.39626;16.072
46174;BME280;31897;52.420;13.498;2023-05-22T11:51:09;101100;;;25.54327;16.11201
46174;BME280;31897;52.420;13.498;2023-05-22T11:54:10;101100;;;25.62469;16.18662
46174;BME280;31897;52.420;13.498;2023-05-22T11:57:11;101100;;;25.6696;15.95138
46174;BME280;31897;52.420;13.498;2023-05-22T12:00:13;101100;;;25.64117;15.87357
46174;BME280;31897;52.420;13.498;2023-05-22T12:03:14;101100;;;25.61564;15.72828
46174;BME280;31897;52.420;13.498;2023-05-22T12:06:15;101100;;;25.77913;15.62641
46174;BME280;31897;52.420;13.498;2023-05-22T12:09:16;101100;;;25.9368;15.51257
46174;BME280;31897;52.420;13.498;2023-05-22T12:12:17;101100;;;25.97589;15.33867
46174;BME280;31897;52.420;13.498;2023-05-22T12:15:19;101100;;;25.9956;15.15369
46174;BME280;31897;52.420;13.498;2023-05-22T12:18:20;101100;;;26.11095;15.08528
46174;BME280;31897;52.420;13.498;2023-05-22T12:21:21;101100;;;26.11773;15.08475
46174;BME280;31897;52.420;13.498;2023-05-22T12:24:22;101100;;;26.08058;14.85428
46174;BME280;31897;52.420;13.498;2023-05-22T12:27:23;101100;;;26.08898;14.85988
46174;BME280;31897;52.420;13.498;2023-05-22T12:30:23;101100;;;26.1872;14.65141
46174;BME280;31897;52.420;13.498;2023-05-22T12:33:25;101100;;;26.54163;14.51217
46174;BME280;31897;52.420;13.498;2023-05-22T12:36:33;101100;;;26.88606;14.36721
46174;BME280;31897;52.420;13.498;2023-05-22T12:39:34;101100;;;27.24502;14.26406
46174;BME280;31897;52.420;13.498;2023-05-22T12:42:35;101100;;;27.36812;14.17002
46174;BME280;31897;52.420;13.498;2023-05-22T12:45:36;101100;;;27.49833;13.82341
46174;BME280;31897;52.420;13.498;2023-05-22T12:48:37;101100;;;27.47248;13.77595
46174;BME280;31897;52.420;13.498;2023-05-22T12:51:38;101100;;;27.34841;13.735
46174;BME280;31897;52.420;13.498;2023-05-22T12:54:38;101100;;;27.19106;13.67785
46174;BME280;31897;52.420;13.498;2023-05-22T12:57:39;101100;;;27.05407;13.72379
46174;BME280;31897;52.420;13.498;2023-05-22T13:00:40;101100;;;26.91934;13.77569
46174;BME280;31897;52.420;13.498;2023-05-22T13:03:41;101100;;;26.71966;13.73365
46174;BME280;31897;52.420;13.498;2023-05-22T13:06:41;101100;;;26.83468;13.63396
46174;BME280;31897;52.420;13.498;2023-05-22T13:09:42;101100;;;27.16392;13.34176
46174;BME280;31897;52.420;13.498;2023-05-22T13:12:43;101100;;;27.56004;13.10607
46174;BME280;31897;52.420;13.498;2023-05-22T13:15:44;101100;;;27.88541;12.89939
46174;BME280;31897;52.420;13.498;2023-05-22T13:18:45;101100;;;28.09058;12.70681
46174;BME280;31897;52.420;13.498;2023-05-22T13:21:45;101100;;;28.38945;12.49524
46174;BME280;31897;52.420;13.498;2023-05-22T13:24:46;101100;;;28.48573;12.22356
46174;BME280;31897;52.420;13.498;2023-05-22T13:27:48;101100;;;28.62047;12.18947
46174;BME280;31897;52.420;13.498;2023-05-22T13:30:49;101100;;;28.64341;12.08922
46174;BME280;31897;52.420;13.498;2023-05-22T13:33:49;101100;;;28.75617;11.92094
46174;BME280;31897;52.420;13.498;2023-05-22T13:36:50;101100;;;28.82952;11.79856
46174;BME280;31897;52.420;13.498;2023-05-22T13:39:51;101100;;;28.91934;11.73665
46174;BME280;31897;52.420;13.498;2023-05-22T13:42:51;101100;;;29.05827;11.59099
46174;BME280;31897;52.420;13.498;2023-05-22T13:45:52;101100;;;29.14681;11.52293
46174;BME280;31897;52.420;13.498;2023-05-22T13:48:53;101100;;;29.32645;11.31242
46174;BME280;31897;52.420;13.498;2023-05-22T13:51:54;101100;;;29.46474;11.26538
46174;BME280;31897;52.420;13.498;2023-05-22T13:54:55;101100;;;29.62016;11.13672
46174;BME280;31897;52.420;13.498;2023-05-22T13:57:55;101100;;;29.72581;11.00541
46174;BME280;31897;52.420;13.498;2023-05-22T14:00:56;101100;;;29.78914;10.91423
46174;BME280;31897;52.420;13.498;2023-05-22T14:03:57;101000;;;29.70675;10.79668
46174;BME280;31897;52.420;13.498;2023-05-22T14:06:58;101000;;;29.60691;10.909
46174;BME280;31897;52.420;13.498;2023-05-22T14:09:59;101000;;;29.54649;10.8269
46174;BME280;31897;52.420;13.498;2023-05-22T14:12:59;101000;;;29.68833;10.76705
46174;BME280;31897;52.420;13.498;2023-05-22T14:16:00;101000;;;29.62921;10.76521
46174;BME280;31897;52.420;13.498;2023-05-22T14:19:01;101000;;;29.75586;10.61988
46174;BME280;31897;52.420;13.498;2023-05-22T14:22:02;101000;;;29.73745;10.54086
46174;BME280;31897;52.420;13.498;2023-05-22T14:25:03;101000;;;29.74811;10.50298
46174;BME280;31897;52.420;13.498;2023-05-22T14:28:04;101000;;;29.62791;10.49332
46174;BME280;31897;52.420;13.498;2023-05-22T14:31:04;101000;;;29.62145;10.51234
46174;BME280;31897;52.420;13.498;2023-05-22T14:34:05;101000;;;29.57654;10.5033
46174;BME280;31897;52.420;13.498;2023-05-22T14:37:06;101000;;;29.39851;10.65239
46174;BME280;31897;52.420;13.498;2023-05-22T14:40:07;101000;;;29.45602;10.62344
46174;BME280;31897;52.420;13.498;2023-05-22T14:43:08;101000;;;29.6263;10.46862
46174;BME280;31897;52.420;13.498;2023-05-22T14:46:09;101000;;;29.95231;10.43218
46174;BME280;31897;52.420;13.498;2023-05-22T14:49:10;101000;;;30.04795;10.28277
46174;BME280;31897;52.420;13.498;2023-05-22T14:52:11;101000;;;30.10967;10.22247
46174;BME280;31897;52.420;13.498;2023-05-22T14:55:12;101000;;;30.09384;10.22366
46174;BME280;31897;52.420;13.498;2023-05-22T14:58:12;101000;;;30.1772;10.236
46174;BME280;31897;52.420;13.498;2023-05-22T15:01:13;101000;;;30.17009;10.25509